FYGF

Grootfontein Airport

Grootfontein, Namibia
METAR FYGF 101400Z 17004KT CAVOK 34/10 Q1018
Observed Flight Rules
Dec-10 @ 14:00 UTC (an hour ago) Visual Flight Rules
Wind Visibility Clouds
170° at 4 knots 10,000+ meters
  • Clear skies
Temperatures Readings
Current 34°C / 93°F
Dewpoint 10°C / 50°F
Humidity 23%
Altimeter 30.06" Hg
Pressure 1018 hPa
Elevation 1400
METAR FYGF 101400Z 17004KT CAVOK 34/10 Q1018
Observed Flight Rules
Dec-10 @ 14:00 UTC
(an hour ago)
VFR
Wind Visibility
170° at 4 knots 10,000+ meters
Clouds
  • Clear skies
Temperature Dewpoint
34°C / 93°F 10°C / 50°F
Humidity Altimeter Pressure
23% 30.06" Hg 1018 hPa